createdAt,value
2022-08-11T00:02:28.774Z,3.70
2022-08-11T00:04:58.532Z,4.17
2022-08-11T00:07:27.921Z,3.20
2022-08-11T00:09:56.800Z,3.60
2022-08-11T00:12:25.311Z,4.00
2022-08-11T00:14:59.937Z,3.90
2022-08-11T00:17:31.783Z,3.80
2022-08-11T00:20:12.508Z,4.03
2022-08-11T00:22:46.237Z,3.63
2022-08-11T00:25:16.671Z,4.50
2022-08-11T00:27:45.734Z,4.03
2022-08-11T00:30:16.145Z,4.20
2022-08-11T00:32:47.362Z,4.23
2022-08-11T00:35:55.473Z,5.10
2022-08-11T00:38:08.339Z,3.90
2022-08-11T00:40:42.878Z,3.73
2022-08-11T00:43:20.195Z,3.70
2022-08-11T00:46:11.601Z,4.00
2022-08-11T00:48:49.871Z,4.80
2022-08-11T00:51:27.069Z,3.70
2022-08-11T00:54:40.623Z,4.40
2022-08-11T00:57:38.563Z,3.83
2022-08-11T01:00:14.912Z,3.70
2022-08-11T01:03:06.353Z,3.73
2022-08-11T01:06:07.873Z,3.43
2022-08-11T01:09:22.371Z,4.30
2022-08-11T01:12:36.733Z,3.60
2022-08-11T01:15:55.897Z,4.27
2022-08-11T01:19:04.312Z,4.30
2022-08-11T01:22:02.892Z,3.30
2022-08-11T01:25:12.730Z,4.10
2022-08-11T01:28:28.673Z,4.83
2022-08-11T01:31:26.506Z,4.60
2022-08-11T01:34:33.126Z,4.10
2022-08-11T01:37:17.861Z,4.53
2022-08-11T01:40:17.188Z,4.07
2022-08-11T01:43:44.855Z,3.70
2022-08-11T01:46:17.370Z,4.30
2022-08-11T01:48:50.813Z,4.30
2022-08-11T01:51:31.939Z,3.93
2022-08-11T01:54:06.413Z,4.70
2022-08-11T01:56:43.350Z,4.50
2022-08-11T01:59:16.805Z,4.67
2022-08-11T02:02:06.967Z,5.00
2022-08-11T02:04:39.264Z,4.43
2022-08-11T02:07:18.024Z,3.97
2022-08-11T02:09:57.381Z,4.10
2022-08-11T02:12:52.315Z,4.07
2022-08-11T02:15:29.699Z,4.13
2022-08-11T02:18:09.180Z,4.40
2022-08-11T02:21:03.509Z,3.90
2022-08-11T02:24:04.367Z,4.33
2022-08-11T02:26:39.468Z,4.10
2022-08-11T02:29:16.784Z,4.37
2022-08-11T02:32:24.779Z,4.63
2022-08-11T02:35:18.961Z,3.77
2022-08-11T02:38:08.602Z,4.87
2022-08-11T02:40:45.267Z,4.60
2022-08-11T02:43:27.935Z,3.80
2022-08-11T02:46:07.630Z,4.40
2022-08-11T02:49:15.073Z,5.00
2022-08-11T02:51:56.637Z,3.93
2022-08-11T02:54:33.219Z,4.40
2022-08-11T02:57:11.311Z,4.23
2022-08-11T02:59:53.920Z,3.63
2022-08-11T03:02:45.917Z,4.20
2022-08-11T03:05:24.339Z,5.00
2022-08-11T03:08:18.634Z,5.40
2022-08-11T03:11:10.080Z,4.80
2022-08-11T03:14:02.227Z,5.03
2022-08-11T03:16:51.738Z,5.27
2022-08-11T03:19:33.834Z,4.53
2022-08-11T03:22:08.200Z,4.40
2022-08-11T03:24:48.978Z,4.33
2022-08-11T03:27:36.716Z,4.80
2022-08-11T03:30:11.489Z,3.97
2022-08-11T03:33:10.296Z,4.50
2022-08-11T03:35:41.882Z,4.90
2022-08-11T03:38:13.800Z,4.83
2022-08-11T03:42:01.395Z,5.17
2022-08-11T03:44:19.560Z,5.27
2022-08-11T03:47:02.709Z,4.47
2022-08-11T03:49:45.893Z,4.73
2022-08-11T03:52:24.414Z,6.00
2022-08-11T03:55:05.405Z,5.07
2022-08-11T03:58:09.102Z,4.60
2022-08-11T04:01:21.630Z,5.13
2022-08-11T04:04:18.641Z,4.80
2022-08-11T04:07:25.525Z,5.07
2022-08-11T04:10:29.202Z,4.60
2022-08-11T04:13:45.971Z,3.97
2022-08-11T04:16:42.183Z,4.57
2022-08-11T04:19:56.873Z,5.10
2022-08-11T04:22:48.319Z,5.07
2022-08-11T04:25:58.118Z,4.43
2022-08-11T04:28:53.713Z,4.73
2022-08-11T04:31:50.451Z,4.30
2022-08-11T04:34:58.924Z,4.60
2022-08-11T04:38:06.589Z,4.40
2022-08-11T04:41:16.328Z,4.50
2022-08-11T04:44:27.801Z,4.17
2022-08-11T04:47:12.758Z,4.10
2022-08-11T04:50:14.245Z,4.57
2022-08-11T04:53:20.237Z,3.83
2022-08-11T04:56:26.657Z,3.30
2022-08-11T04:59:38.986Z,4.03
2022-08-11T05:02:35.630Z,3.40
2022-08-11T05:05:32.061Z,3.00
2022-08-11T05:08:42.965Z,3.77
2022-08-11T05:11:36.579Z,3.20
2022-08-11T05:14:46.732Z,3.20
2022-08-11T05:17:36.303Z,3.30
2022-08-11T05:20:22.256Z,3.43
2022-08-11T05:23:10.359Z,3.03
2022-08-11T05:26:45.531Z,3.17
2022-08-11T05:29:20.261Z,3.73
2022-08-11T05:32:18.963Z,3.20
2022-08-11T05:34:54.110Z,3.93
2022-08-11T05:37:33.060Z,3.40
2022-08-11T05:40:25.219Z,3.20
2022-08-11T05:43:15.773Z,3.40
2022-08-11T05:46:06.232Z,3.30
2022-08-11T05:48:55.377Z,3.30
2022-08-11T05:51:55.122Z,2.93
2022-08-11T05:54:42.974Z,2.93
2022-08-11T05:57:49.627Z,3.00
2022-08-11T06:00:11.855Z,3.20
2022-08-11T06:02:45.425Z,2.73
2022-08-11T06:05:14.232Z,3.83
2022-08-11T06:07:48.785Z,2.77
2022-08-11T06:10:28.301Z,3.07
2022-08-11T06:12:58.156Z,3.03
2022-08-11T06:15:27.573Z,3.00
2022-08-11T06:17:58.595Z,4.00
2022-08-11T06:20:27.268Z,2.97
2022-08-11T06:23:03.536Z,2.70
2022-08-11T06:25:33.485Z,3.20
2022-08-11T06:28:02.158Z,2.90
2022-08-11T06:30:40.522Z,3.00
2022-08-11T06:33:12.489Z,3.07
2022-08-11T06:35:49.346Z,2.90
2022-08-11T06:38:29.059Z,2.83
2022-08-11T06:41:19.645Z,2.93
2022-08-11T06:43:56.129Z,3.23
2022-08-11T06:46:29.745Z,2.07
2022-08-11T06:49:03.355Z,3.07
2022-08-11T06:51:32.607Z,2.80
2022-08-11T06:54:05.601Z,3.00
2022-08-11T06:57:12.424Z,2.97
2022-08-11T07:00:01.443Z,3.00
2022-08-11T07:02:34.559Z,2.57
2022-08-11T07:05:08.133Z,2.83
2022-08-11T07:08:35.309Z,2.57
2022-08-11T07:11:55.639Z,2.50
2022-08-11T07:14:43.912Z,2.90
2022-08-11T07:17:17.377Z,2.40
2022-08-11T07:20:10.164Z,3.50
2022-08-11T07:22:58.368Z,2.57
2022-08-11T07:25:44.972Z,3.13
2022-08-11T07:28:37.082Z,3.03
2022-08-11T07:31:08.847Z,2.80
2022-08-11T07:34:05.786Z,2.63
2022-08-11T07:36:32.757Z,2.83
2022-08-11T07:39:03.323Z,2.60
2022-08-11T07:41:35.973Z,2.70
2022-08-11T07:44:09.796Z,2.70
2022-08-11T07:47:00.858Z,2.80
2022-08-11T07:49:48.037Z,2.63
2022-08-11T07:52:28.317Z,2.63
2022-08-11T07:55:00.511Z,2.37
2022-08-11T07:58:15.954Z,2.70
2022-08-11T08:00:56.191Z,2.97
2022-08-11T08:03:54.259Z,2.90
2022-08-11T08:06:41.365Z,2.80
2022-08-11T08:09:27.916Z,2.60
2022-08-11T08:12:15.601Z,2.80
2022-08-11T08:15:01.514Z,2.77
2022-08-11T08:18:09.287Z,2.73
2022-08-11T08:20:41.255Z,2.50
2022-08-11T08:23:10.169Z,2.70
2022-08-11T08:25:41.487Z,3.20
2022-08-11T08:28:14.537Z,2.70
2022-08-11T08:30:49.849Z,3.00
2022-08-11T08:33:20.915Z,2.80
2022-08-11T08:35:54.285Z,3.50
2022-08-11T08:38:24.260Z,2.43
2022-08-11T08:40:56.564Z,2.70
2022-08-11T08:43:26.398Z,2.83
2022-08-11T08:45:58.377Z,2.30
2022-08-11T08:48:29.303Z,3.10
2022-08-11T08:51:21.926Z,2.70
2022-08-11T08:53:56.418Z,2.50
2022-08-11T08:56:29.123Z,2.70
2022-08-11T08:59:00.404Z,2.80
2022-08-11T09:01:31.228Z,2.17
2022-08-11T09:04:07.297Z,2.37
2022-08-11T09:06:40.901Z,2.50
2022-08-11T09:09:10.005Z,2.30
2022-08-11T09:11:56.893Z,2.07
2022-08-11T09:14:48.710Z,2.97
2022-08-11T09:17:18.773Z,2.90
2022-08-11T09:19:49.465Z,2.40
2022-08-11T09:22:42.707Z,3.20
2022-08-11T09:25:28.385Z,3.40
2022-08-11T09:27:57.501Z,3.03
2022-08-11T09:30:28.690Z,2.63
2022-08-11T09:33:00.406Z,2.87
2022-08-11T09:35:29.760Z,3.07
2022-08-11T09:38:28.941Z,3.03
2022-08-11T09:40:57.579Z,3.00
2022-08-11T09:43:44.720Z,2.73
2022-08-11T09:46:14.390Z,3.30
2022-08-11T09:48:45.800Z,2.70
2022-08-11T09:51:14.900Z,2.40
2022-08-11T09:54:02.670Z,2.60
2022-08-11T09:56:49.848Z,3.10
2022-08-11T09:59:20.611Z,2.73
2022-08-11T10:01:56.091Z,2.93
2022-08-11T10:04:31.229Z,2.90
2022-08-11T10:07:04.660Z,2.90
2022-08-11T10:09:39.490Z,3.00
2022-08-11T10:12:11.474Z,2.43
2022-08-11T10:15:02.227Z,2.67
2022-08-11T10:17:34.365Z,3.20
2022-08-11T10:20:05.931Z,3.20
2022-08-11T10:22:53.433Z,2.50
2022-08-11T10:25:40.089Z,2.33
2022-08-11T10:28:28.337Z,2.40
2022-08-11T10:31:16.707Z,2.73
2022-08-11T10:34:03.666Z,2.33
2022-08-11T10:36:34.575Z,2.43
2022-08-11T10:39:05.310Z,2.67
2022-08-11T10:42:06.148Z,2.50
2022-08-11T10:44:40.363Z,2.37
2022-08-11T10:47:28.039Z,2.50
2022-08-11T10:50:15.581Z,2.20
2022-08-11T10:53:03.151Z,2.40
2022-08-11T10:55:48.941Z,3.10
2022-08-11T10:58:35.257Z,2.33
2022-08-11T11:01:04.358Z,2.80
2022-08-11T11:03:34.553Z,2.77
2022-08-11T11:06:27.344Z,3.00
2022-08-11T11:09:04.043Z,2.77
2022-08-11T11:11:56.576Z,2.97
2022-08-11T11:14:49.167Z,3.07
2022-08-11T11:17:45.392Z,3.40
2022-08-11T11:20:36.402Z,3.13
2022-08-11T11:23:11.113Z,2.73
2022-08-11T11:26:10.356Z,2.90
2022-08-11T11:29:27.277Z,3.00
2022-08-11T11:32:17.382Z,2.30
2022-08-11T11:35:10.299Z,2.47
2022-08-11T11:37:39.144Z,3.00
2022-08-11T11:40:13.028Z,2.30
2022-08-11T11:42:46.708Z,2.90
2022-08-11T11:45:22.802Z,3.10
2022-08-11T11:47:54.589Z,2.60
2022-08-11T11:50:31.565Z,2.57
2022-08-11T11:53:02.880Z,2.77
2022-08-11T11:55:32.830Z,2.13
2022-08-11T11:58:22.053Z,2.20
2022-08-11T12:01:09.425Z,2.87
2022-08-11T12:03:38.418Z,3.20
2022-08-11T12:06:08.028Z,2.83
2022-08-11T12:08:37.854Z,3.30
2022-08-11T12:11:27.607Z,2.90
2022-08-11T12:13:58.369Z,2.80
2022-08-11T12:16:32.871Z,2.90
2022-08-11T12:19:06.314Z,2.80
2022-08-11T12:21:36.960Z,2.47
2022-08-11T12:24:22.886Z,2.80
2022-08-11T12:27:18.288Z,2.23
2022-08-11T12:29:54.859Z,3.10
2022-08-11T12:32:25.547Z,3.23
2022-08-11T12:34:56.827Z,3.10
2022-08-11T12:37:30.222Z,2.83
2022-08-11T12:40:49.396Z,2.87
2022-08-11T12:43:57.118Z,2.47
2022-08-11T12:46:32.637Z,2.73
2022-08-11T12:49:23.222Z,2.97
2022-08-11T12:52:13.187Z,2.50
2022-08-11T12:54:52.648Z,2.27
2022-08-11T12:57:45.737Z,2.40
2022-08-11T13:00:34.466Z,1.87
2022-08-11T13:03:21.022Z,2.20
2022-08-11T13:05:50.434Z,2.90
2022-08-11T13:08:18.912Z,2.20
2022-08-11T13:11:05.543Z,2.60
2022-08-11T13:13:55.601Z,2.23
2022-08-11T13:16:24.661Z,2.40
2022-08-11T13:18:53.742Z,2.60
2022-08-11T13:21:22.958Z,2.90
2022-08-11T13:24:01.784Z,2.23
2022-08-11T13:26:43.443Z,2.87
2022-08-11T13:29:21.718Z,2.50
2022-08-11T13:31:51.899Z,2.77
2022-08-11T13:34:21.188Z,2.70
2022-08-11T13:36:52.834Z,2.37
2022-08-11T13:39:24.059Z,2.30
2022-08-11T13:41:54.441Z,2.40
2022-08-11T13:44:25.841Z,2.43
2022-08-11T13:46:57.219Z,2.70
2022-08-11T13:49:26.065Z,2.30
2022-08-11T13:51:56.996Z,2.43
2022-08-11T13:54:28.471Z,2.30
2022-08-11T13:57:01.394Z,2.37
2022-08-11T13:59:31.366Z,2.43
2022-08-11T14:02:22.126Z,1.80
2022-08-11T14:04:55.943Z,2.47
2022-08-11T14:07:26.817Z,2.10
2022-08-11T14:09:59.076Z,2.20
2022-08-11T14:12:46.462Z,2.60
2022-08-11T14:15:20.780Z,2.30
2022-08-11T14:17:55.820Z,2.33
2022-08-11T14:20:38.172Z,2.60
2022-08-11T14:23:10.808Z,2.50
2022-08-11T14:26:02.405Z,2.40
2022-08-11T14:28:37.463Z,2.50
2022-08-11T14:31:09.370Z,2.30
2022-08-11T14:34:00.441Z,2.17
2022-08-11T14:36:31.802Z,2.00
2022-08-11T14:39:00.680Z,2.20
2022-08-11T14:42:10.607Z,2.13
2022-08-11T14:44:54.000Z,2.93
2022-08-11T14:47:25.406Z,2.83
2022-08-11T14:50:10.000Z,2.43
2022-08-11T14:52:44.871Z,2.30
2022-08-11T14:55:31.692Z,2.60
2022-08-11T14:58:00.339Z,2.20
2022-08-11T15:00:28.592Z,2.60
2022-08-11T15:03:12.095Z,1.80
2022-08-11T15:05:56.015Z,2.50
2022-08-11T15:08:47.070Z,2.30
2022-08-11T15:11:34.435Z,2.47
2022-08-11T15:14:04.732Z,2.40
2022-08-11T15:16:50.621Z,2.40
2022-08-11T15:19:21.300Z,2.70
2022-08-11T15:22:08.633Z,3.00
2022-08-11T15:24:37.380Z,2.20
2022-08-11T15:27:26.398Z,2.30
2022-08-11T15:30:20.941Z,2.13
2022-08-11T15:33:21.776Z,2.47
2022-08-11T15:36:08.832Z,2.37
2022-08-11T15:38:43.939Z,3.03
2022-08-11T15:41:33.963Z,2.07
2022-08-11T15:44:44.711Z,2.20
2022-08-11T15:47:14.244Z,2.10
2022-08-11T15:50:10.398Z,2.50
2022-08-11T15:52:35.431Z,2.73
2022-08-11T15:55:08.997Z,2.33
2022-08-11T15:57:55.723Z,2.57
2022-08-11T16:00:41.812Z,2.07
2022-08-11T16:03:54.369Z,2.63
2022-08-11T16:06:17.426Z,2.07
2022-08-11T16:08:46.896Z,2.43
2022-08-11T16:11:18.237Z,2.13
2022-08-11T16:14:03.733Z,2.30
2022-08-11T16:16:34.811Z,2.23
2022-08-11T16:19:05.067Z,2.60
2022-08-11T16:21:36.653Z,2.37
2022-08-11T16:24:08.421Z,1.73
2022-08-11T16:27:07.470Z,2.13
2022-08-11T16:29:32.718Z,1.97
2022-08-11T16:32:20.683Z,2.33
2022-08-11T16:35:14.769Z,2.37
2022-08-11T16:38:01.759Z,2.60
2022-08-11T16:40:31.453Z,1.90
2022-08-11T16:43:19.394Z,2.37
2022-08-11T16:46:06.614Z,2.47
2022-08-11T16:48:38.827Z,2.07
2022-08-11T16:51:08.257Z,2.73
2022-08-11T16:54:03.518Z,2.20
2022-08-11T16:56:31.233Z,2.43
2022-08-11T16:59:18.190Z,1.97
2022-08-11T17:01:52.992Z,2.33
2022-08-11T17:04:45.479Z,2.30
2022-08-11T17:07:41.528Z,2.57
2022-08-11T17:10:53.768Z,2.17
2022-08-11T17:13:30.094Z,2.20
2022-08-11T17:16:08.820Z,2.20
2022-08-11T17:18:44.072Z,1.97
2022-08-11T17:21:26.210Z,2.10
2022-08-11T17:23:57.069Z,2.10
2022-08-11T17:26:50.693Z,1.90
2022-08-11T17:29:21.514Z,2.37
2022-08-11T17:32:11.174Z,2.20
2022-08-11T17:34:58.574Z,2.37
2022-08-11T17:37:27.998Z,2.40
2022-08-11T17:39:57.796Z,2.50
2022-08-11T17:42:46.874Z,2.37
2022-08-11T17:45:34.413Z,2.13
2022-08-11T17:48:23.365Z,2.60
2022-08-11T17:50:53.113Z,2.50
2022-08-11T17:53:39.290Z,2.30
2022-08-11T17:56:26.353Z,2.43
2022-08-11T17:59:13.185Z,2.30
2022-08-11T18:01:43.268Z,2.57
2022-08-11T18:04:14.842Z,2.10
2022-08-11T18:06:44.107Z,2.30
2022-08-11T18:09:33.262Z,2.33
2022-08-11T18:12:20.167Z,2.10
2022-08-11T18:15:07.283Z,2.10
2022-08-11T18:17:53.635Z,2.00
2022-08-11T18:20:41.661Z,2.97
2022-08-11T18:23:42.090Z,2.20
2022-08-11T18:26:38.261Z,2.00
2022-08-11T18:29:25.754Z,2.33
2022-08-11T18:32:12.309Z,2.30
2022-08-11T18:35:09.212Z,2.33
2022-08-11T18:38:02.184Z,1.80
2022-08-11T18:40:49.217Z,2.37
2022-08-11T18:43:38.312Z,2.30
2022-08-11T18:46:26.925Z,2.50
2022-08-11T18:49:18.387Z,1.90
2022-08-11T18:52:06.590Z,2.20
2022-08-11T18:54:55.828Z,2.00
2022-08-11T18:57:50.083Z,1.90
2022-08-11T19:00:40.790Z,2.30
2022-08-11T19:03:28.422Z,2.70
2022-08-11T19:06:38.317Z,2.67
2022-08-11T19:09:25.867Z,2.50
2022-08-11T19:12:13.302Z,2.27
2022-08-11T19:15:00.145Z,2.17
2022-08-11T19:17:48.695Z,1.93
2022-08-11T19:20:38.161Z,2.10
2022-08-11T19:23:27.433Z,2.23
2022-08-11T19:26:14.642Z,2.00
2022-08-11T19:29:07.526Z,1.90
2022-08-11T19:31:54.376Z,1.67
2022-08-11T19:34:42.145Z,1.90
2022-08-11T19:37:29.295Z,2.20
2022-08-11T19:40:18.412Z,1.60
2022-08-11T19:43:18.583Z,1.80
2022-08-11T19:46:13.129Z,1.40
2022-08-11T19:49:00.039Z,2.20
2022-08-11T19:51:47.335Z,1.40
2022-08-11T19:54:42.000Z,2.07
2022-08-11T19:57:27.928Z,1.67
2022-08-11T20:00:14.414Z,1.40
2022-08-11T20:03:04.865Z,2.10
2022-08-11T20:05:55.760Z,2.10
2022-08-11T20:08:47.825Z,2.00
2022-08-11T20:11:36.383Z,2.20
2022-08-11T20:14:23.866Z,1.97
2022-08-11T20:17:11.240Z,2.10
2022-08-11T20:22:49.293Z,1.97
2022-08-11T20:25:36.834Z,2.17
2022-08-11T20:28:23.778Z,2.20
2022-08-11T20:31:10.697Z,2.10
2022-08-11T20:33:57.127Z,1.90
2022-08-11T20:36:47.589Z,2.40
2022-08-11T20:39:40.626Z,1.83
2022-08-11T20:42:30.278Z,1.83
2022-08-11T20:45:18.763Z,1.97
2022-08-11T20:51:18.025Z,2.23
2022-08-11T20:54:07.671Z,2.07
2022-08-11T20:56:54.395Z,1.70
2022-08-11T20:59:50.692Z,2.20
2022-08-11T21:02:44.525Z,2.37
2022-08-11T21:06:08.260Z,1.77
2022-08-11T21:08:37.948Z,2.03
2022-08-11T21:11:30.498Z,2.53
2022-08-11T21:14:18.682Z,2.17
2022-08-11T21:17:27.239Z,2.30
2022-08-11T21:20:20.792Z,2.40
2022-08-11T21:23:10.458Z,2.10
2022-08-11T21:26:07.726Z,2.60
2022-08-11T21:28:58.030Z,2.53
2022-08-11T21:31:45.251Z,1.80
2022-08-11T21:34:32.834Z,2.03
2022-08-11T21:37:20.190Z,2.40
2022-08-11T21:40:07.819Z,2.20
2022-08-11T21:42:57.272Z,2.60
2022-08-11T21:45:45.516Z,2.50
2022-08-11T21:48:31.592Z,2.33
2022-08-11T21:51:17.921Z,2.57
2022-08-11T21:54:03.961Z,2.63
2022-08-11T21:56:51.303Z,1.77
2022-08-11T21:59:42.428Z,2.13
2022-08-11T22:02:29.093Z,2.33
2022-08-11T22:05:14.926Z,2.10
2022-08-11T22:08:00.951Z,2.17
2022-08-11T22:10:46.936Z,2.17
2022-08-11T22:13:32.319Z,2.03
2022-08-11T22:16:18.957Z,2.30
2022-08-11T22:19:09.140Z,2.20
2022-08-11T22:22:01.347Z,2.03
2022-08-11T22:24:51.810Z,3.00
2022-08-11T22:27:38.358Z,2.20
2022-08-11T22:30:25.804Z,2.50
2022-08-11T22:33:11.815Z,2.97
2022-08-11T22:36:02.979Z,2.70
2022-08-11T22:38:51.337Z,2.40
2022-08-11T22:41:36.875Z,2.67
2022-08-11T22:44:22.651Z,2.20
2022-08-11T22:47:09.670Z,2.60
2022-08-11T22:49:58.560Z,2.77
2022-08-11T22:52:47.676Z,2.80
2022-08-11T22:55:33.995Z,2.33
2022-08-11T22:58:21.420Z,2.50
2022-08-11T23:01:08.290Z,2.33
2022-08-11T23:03:54.711Z,2.57
2022-08-11T23:06:40.630Z,2.00
2022-08-11T23:09:28.057Z,2.10
2022-08-11T23:12:14.116Z,2.30
2022-08-11T23:15:00.299Z,2.43
2022-08-11T23:17:46.657Z,2.47
2022-08-11T23:20:39.226Z,2.73
2022-08-11T23:23:32.447Z,2.33
2022-08-11T23:26:20.896Z,2.70
2022-08-11T23:29:06.433Z,2.60
2022-08-11T23:31:55.035Z,2.20
2022-08-11T23:35:03.540Z,2.73
2022-08-11T23:37:48.312Z,2.20
2022-08-11T23:40:33.914Z,2.10
2022-08-11T23:43:21.632Z,2.63
2022-08-11T23:46:07.070Z,2.67
2022-08-11T23:48:55.119Z,2.40
2022-08-11T23:51:41.754Z,2.87
2022-08-11T23:54:28.216Z,2.83
2022-08-11T23:57:13.707Z,2.60
